Osg Horizon — WDF6180 — position and weather

sailwx.info

Track history (hours):
 
Tides and Currents Weather Stations Pressure Air Temp Water Temp Dewpoint Dewpoint Depression Visibility Wind Speed Wind Dir Waves Ship Positions

Osg Horizon

Owner: OSG Ship Management, Tampa, FL. More information available from US FCC via Universal Licensing System and Coast Guard Vessel Documentation Center.

Last reported at 2018-Jul-17 05:30 UTC. Time now 2018-Jul-17 05:33 UTC.
Position N 39°48' W 075°24'.

Length 215 m.

Type: Tanker. MMSI: 338447000.

Date/timePositionNaut miles runAvg speedWind from/ knotsBaromVisibWave heightAir tempDewpointWater temp
2018-Jul-17 05:30N 39°48' W 075°24'0 0.0
2018-Jul-17 05:00N 39°48' W 075°24'0 0.0
2018-Jul-17 04:30N 39°48' W 075°24'0 0.4
2018-Jul-17 04:00N 39°48' W 075°25'0 0.1
2018-Jul-17 03:30N 39°48' W 075°25'0 0.0
2018-Jul-17 03:00N 39°48' W 075°25'0 0.1
2018-Jul-17 02:30N 39°48' W 075°25'0 0.1
2018-Jul-17 02:00N 39°48' W 075°25'0 0.0
2018-Jul-17 01:30N 39°48' W 075°25'0 0.0
2018-Jul-17 01:00N 39°48' W 075°25'0 0.1
2018-Jul-17 00:30N 39°48' W 075°25'0 0.0
2018-Jul-16 23:30N 39°48' W 075°25'0 0.1
2018-Jul-16 23:00N 39°48' W 075°25'0 0.1
2018-Jul-16 22:30N 39°48' W 075°25'0 0.2
2018-Jul-16 22:00N 39°48' W 075°24'0 0.1
2018-Jul-16 21:30N 39°48' W 075°24'0 0.1
2018-Jul-16 21:00N 39°48' W 075°24'0 0.0
2018-Jul-16 20:30N 39°48' W 075°24'0 0.0
2018-Jul-16 20:00N 39°48' W 075°24'0 0.0
2018-Jul-16 19:30N 39°48' W 075°24'0 0.0
2018-Jul-16 19:00N 39°48' W 075°24'2 3.4
2018-Jul-16 18:30N 39°48' W 075°26'3 6.4
2018-Jul-16 18:00N 39°45' W 075°29'3 5.8
2018-Jul-16 17:30N 39°43' W 075°31'3 5.7
2018-Jul-16 17:00N 39°45' W 075°29'5 9.1
2018-Jul-16 16:30N 39°48' W 075°25'510.2
2018-Jul-16 16:00N 39°51' W 075°19'510.0
2018-Jul-16 15:30N 39°52' W 075°13'0 0.1
2018-Jul-16 15:00N 39°52' W 075°13'0 0.0
2018-Jul-16 14:28N 39°52' W 075°13'0 0.0
2018-Jul-16 13:58N 39°52' W 075°13'0 0.0
2018-Jul-16 13:28N 39°52' W 075°13'0 0.0
2018-Jul-16 12:58N 39°52' W 075°13'0 0.0
2018-Jul-16 12:28N 39°52' W 075°13'0 0.0
2018-Jul-16 11:58N 39°52' W 075°13'0 0.0
2018-Jul-16 11:28N 39°52' W 075°13'0 0.0
2018-Jul-16 10:58N 39°52' W 075°13'0 0.0
2018-Jul-16 10:28N 39°52' W 075°13'0 0.0
2018-Jul-16 09:58N 39°52' W 075°13'0 0.0
2018-Jul-16 09:28N 39°52' W 075°13'0 0.0
2018-Jul-16 08:58N 39°52' W 075°13'0 0.0
2018-Jul-16 08:28N 39°52' W 075°13'0 0.0
2018-Jul-16 07:58N 39°52' W 075°13'0 0.0
2018-Jul-16 07:28N 39°52' W 075°13'0 0.0
2018-Jul-16 06:55N 39°52' W 075°13'0 0.0
2018-Jul-16 06:28N 39°52' W 075°13'0 0.0
2018-Jul-16 05:58N 39°52' W 075°13'0 0.0
2018-Jul-16 05:28N 39°52' W 075°13'0 0.0
2018-Jul-16 04:58N 39°52' W 075°13'0 0.0
2018-Jul-16 04:28N 39°52' W 075°13'0 0.0
2018-Jul-16 03:58N 39°52' W 075°13'0 0.0
2018-Jul-16 03:28N 39°52' W 075°13'0 0.0
2018-Jul-16 02:58N 39°52' W 075°13'0 0.0
2018-Jul-16 02:28N 39°52' W 075°13'0 0.0
2018-Jul-16 01:58N 39°52' W 075°13'0 0.0
2018-Jul-16 01:28N 39°52' W 075°13'0 0.0
2018-Jul-16 00:58N 39°52' W 075°13'0 0.0
2018-Jul-16 00:28N 39°52' W 075°13'0 0.0
2018-Jul-15 23:58N 39°52' W 075°13'0 0.0
2018-Jul-15 23:28N 39°52' W 075°13'0 0.0
2018-Jul-15 22:58N 39°52' W 075°13'0 0.0
2018-Jul-15 22:28N 39°52' W 075°13'0 0.0
2018-Jul-15 21:58N 39°52' W 075°13'0 0.0
2018-Jul-15 21:28N 39°52' W 075°13'0 0.0
2018-Jul-15 20:58N 39°52' W 075°13'0 0.0
2018-Jul-15 20:28N 39°52' W 075°13'0 0.0
2018-Jul-15 19:58N 39°52' W 075°13'0 0.0
2018-Jul-15 19:28N 39°52' W 075°13'0 0.0
2018-Jul-15 18:58N 39°52' W 075°13'0 0.0
2018-Jul-15 18:28N 39°52' W 075°13'0 0.0
2018-Jul-15 17:58N 39°52' W 075°13'0 0.2
2018-Jul-15 17:30N 39°52' W 075°13'3 6.4
2018-Jul-15 17:00N 39°51' W 075°17'611.9
2018-Jul-15 16:30N 39°49' W 075°24'611.9
2018-Jul-15 16:00N 39°45' W 075°30'611.6
2018-Jul-15 15:30N 39°39' W 075°33'5 9.9
2018-Jul-15 15:00N 39°35' W 075°33'611.1
2018-Jul-15 14:30N 39°29' W 075°34'510.9
2018-Jul-15 14:00N 39°24' W 075°30'611.1
2018-Jul-15 13:30N 39°20' W 075°25'611.2
2018-Jul-15 13:00N 39°16' W 075°21'510.7
2018-Jul-15 12:30N 39°12' W 075°17'510.9
2018-Jul-15 12:00N 39°07' W 075°13'510.4
2018-Jul-15 11:30N 39°02' W 075°10'510.8
2018-Jul-15 11:00N 38°57' W 075°07'3 6.3
2018-Jul-15 10:30N 38°54' W 075°07'1 2.2
2018-Jul-15 10:01N 38°55' W 075°09'0 0.1
2018-Jul-15 09:29N 38°55' W 075°09'0 0.0
2018-Jul-15 09:00N 38°55' W 075°09'0 0.0
2018-Jul-15 08:18N 38°55' W 075°09'0 0.0
2018-Jul-15 08:00N 38°55' W 075°09'0 0.0
2018-Jul-15 07:30N 38°55' W 075°09'0 0.0
2018-Jul-15 07:00N 38°55' W 075°09'0 0.0
2018-Jul-15 06:18N 38°55' W 075°09'0 0.1
2018-Jul-15 05:39N 38°55' W 075°09'0 0.3
2018-Jul-15 05:27N 38°55' W 075°09'0 0.1
2018-Jul-15 03:00N 38°55' W 075°09'1 1.6
2018-Jul-15 02:30N 38°55' W 075°10'2 0.4
2018-Jul-14 21:17N 38°57' W 075°11'0 0.1
2018-Jul-14 20:59N 38°57' W 075°11'0 0.0
2018-Jul-14 20:29N 38°57' W 075°11'0 0.0
2018-Jul-14 19:56N 38°57' W 075°11'0 0.1
2018-Jul-14 19:29N 38°57' W 075°11'0 0.0
2018-Jul-14 19:00N 38°57' W 075°11'2 3.7
2018-Jul-14 18:30N 38°56' W 075°09'2 4.6
2018-Jul-14 18:00N 38°56' W 075°06'612.4
2018-Jul-14 17:30N 39°02' W 075°10'611.4
2018-Jul-14 17:01N 39°07' W 075°13'510.9
2018-Jul-14 16:30N 39°12' W 075°17'5 9.8
2018-Jul-14 16:00N 39°16' W 075°20'5 9.0
2018-Jul-14 15:30N 39°19' W 075°24'4 8.5
2018-Jul-14 15:00N 39°22' W 075°28'4 8.8
2018-Jul-14 14:30N 39°26' W 075°32'9 8.8
2018-Jul-14 13:30N 39°34' W 075°33'5 9.6
2018-Jul-14 13:00N 39°39' W 075°33'612.2
2018-Jul-14 12:30N 39°45' W 075°30'510.7
2018-Jul-14 12:00N 39°49' W 075°25'0 0.4
2018-Jul-14 11:30N 39°49' W 075°24'0 0.0
2018-Jul-14 10:56N 39°49' W 075°24'0 0.0
2018-Jul-14 09:32N 39°49' W 075°24'0 0.0
2018-Jul-14 09:14N 39°49' W 075°24'0 0.0
2018-Jul-14 08:47N 39°49' W 075°24'0 0.0
2018-Jul-14 08:23N 39°49' W 075°24'0 0.0
2018-Jul-14 07:59N 39°49' W 075°24'0 0.0
2018-Jul-14 06:59N 39°49' W 075°24'0 0.0
2018-Jul-14 06:29N 39°49' W 075°24'0 0.0
2018-Jul-14 05:41N 39°49' W 075°24'0 0.0
2018-Jul-14 05:29N 39°49' W 075°24'0 0.0
2018-Jul-14 04:59N 39°49' W 075°24'0 0.0
2018-Jul-14 04:29N 39°49' W 075°24'0 0.0
2018-Jul-14 03:59N 39°49' W 075°24'0 0.0
2018-Jul-14 03:29N 39°49' W 075°24'0 0.0
2018-Jul-14 02:59N 39°49' W 075°24'0 0.0
2018-Jul-14 02:29N 39°49' W 075°24'0 0.0
2018-Jul-14 01:59N 39°49' W 075°24'0 0.0
2018-Jul-14 01:29N 39°49' W 075°24'0 0.0
2018-Jul-14 00:59N 39°49' W 075°24'0 0.0
2018-Jul-14 00:26N 39°49' W 075°24'0 0.0
2018-Jul-13 23:59N 39°49' W 075°24'0 0.0
2018-Jul-13 23:23N 39°49' W 075°24'0 0.0
2018-Jul-13 22:44N 39°49' W 075°24'0 0.0
2018-Jul-13 22:29N 39°49' W 075°24'0 0.0
2018-Jul-13 21:59N 39°49' W 075°24'0 0.0
2018-Jul-13 21:29N 39°49' W 075°24'0 0.0
2018-Jul-13 20:59N 39°49' W 075°24'0 0.0
2018-Jul-13 20:26N 39°49' W 075°24'0 0.0
2018-Jul-13 19:59N 39°49' W 075°24'0 0.0
2018-Jul-13 19:30N 39°49' W 075°24'0 0.5
2018-Jul-13 19:00N 39°49' W 075°25'4 8.9
2018-Jul-13 18:30N 39°46' W 075°29'511.0
2018-Jul-13 18:00N 39°40' W 075°31'5 9.9
2018-Jul-13 17:30N 39°36' W 075°34'510.6
2018-Jul-13 17:00N 39°31' W 075°33'510.3
2018-Jul-13 16:30N 39°26' W 075°32'611.7
2018-Jul-13 16:00N 39°21' W 075°27'611.9
2018-Jul-13 15:30N 39°17' W 075°21'611.6
2018-Jul-13 15:00N 39°12' W 075°17'611.5
2018-Jul-13 14:31N 39°07' W 075°13'1111.2
2018-Jul-13 13:29N 38°57' W 075°07'3 5.4
2018-Jul-13 13:00N 38°55' W 075°08'0 0.1
2018-Jul-13 12:29N 38°55' W 075°08'0 0.0
2018-Jul-13 11:59N 38°55' W 075°08'0 0.0
2018-Jul-13 11:29N 38°55' W 075°08'0 0.0
2018-Jul-13 10:59N 38°55' W 075°08'0 0.1
2018-Jul-13 10:29N 38°55' W 075°08'0 0.0
2018-Jul-13 09:59N 38°55' W 075°08'0 0.2
2018-Jul-13 09:26N 38°54' W 075°08'0 0.3
2018-Jul-13 08:59N 38°54' W 075°08'0 0.2
2018-Jul-13 08:30N 38°54' W 075°08'0 0.0
2018-Jul-13 08:00N 38°54' W 075°08'3 5.8
2018-Jul-13 07:30N 38°56' W 075°10'0 0.7
2018-Jul-13 07:00N 38°57' W 075°10'0 0.0
2018-Jul-13 06:30N 38°57' W 075°10'0 0.0
2018-Jul-13 06:00N 38°57' W 075°10'0 0.0
2018-Jul-13 05:24N 38°57' W 075°10'0 0.1
2018-Jul-13 04:54N 38°57' W 075°10'0 0.0
2018-Jul-13 04:27N 38°57' W 075°10'0 0.1
2018-Jul-13 03:57N 38°57' W 075°10'0 0.4
2018-Jul-13 03:12N 38°57' W 075°10'0 0.3
2018-Jul-13 03:00N 38°57' W 075°11'0 0.1
2018-Jul-13 02:30N 38°57' W 075°11'0 0.0
2018-Jul-12 23:00N 38°57' W 075°11'0 0.7
2018-Jul-12 22:30N 38°57' W 075°10'7 4.8
2018-Jul-12 21:05N 39°04' W 075°10'1 9.5
2018-Jul-12 20:58N 39°05' W 075°11'510.1
2018-Jul-12 20:31N 39°08' W 075°14'611.1
2018-Jul-12 20:00N 39°13' W 075°18'612.3
2018-Jul-12 19:30N 39°18' W 075°23'612.5
2018-Jul-12 19:01N 39°23' W 075°28'612.1
2018-Jul-12 18:30N 39°27' W 075°33'611.1
2018-Jul-12 18:00N 39°33' W 075°33'3 6.1
2018-Jul-12 17:30N 39°35' W 075°35'0 0.0
2018-Jul-12 17:00N 39°35' W 075°35'0 0.0
2018-Jul-12 16:30N 39°35' W 075°35'0 0.0
2018-Jul-12 16:00N 39°35' W 075°35'0 0.0
2018-Jul-12 15:30N 39°35' W 075°35'0 0.0
2018-Jul-12 14:59N 39°35' W 075°35'0 0.0
2018-Jul-12 14:30N 39°35' W 075°35'0 0.0
2018-Jul-12 14:00N 39°35' W 075°35'0 0.0
2018-Jul-12 13:31N 39°35' W 075°35'0 0.0
2018-Jul-12 13:01N 39°35' W 075°35'0 0.0
2018-Jul-12 12:31N 39°35' W 075°35'0 0.0
2018-Jul-12 12:00N 39°35' W 075°35'0 0.0
2018-Jul-12 11:30N 39°35' W 075°35'0 0.0
2018-Jul-12 11:00N 39°35' W 075°35'0 0.0
2018-Jul-12 10:30N 39°35' W 075°35'0 0.0
2018-Jul-12 10:00N 39°35' W 075°35'0 0.0
2018-Jul-12 09:31N 39°35' W 075°35'0 0.0
2018-Jul-12 09:00N 39°35' W 075°35'0 0.0
2018-Jul-12 08:30N 39°35' W 075°35'0 0.0
2018-Jul-12 08:00N 39°35' W 075°35'0 0.0
2018-Jul-12 07:30N 39°35' W 075°35'0 0.0
2018-Jul-12 07:00N 39°35' W 075°35'0 0.0
2018-Jul-12 06:30N 39°35' W 075°35'0 0.0
2018-Jul-12 06:00N 39°35' W 075°35'0 0.0
2018-Jul-12 05:30N 39°35' W 075°35'0 0.0
2018-Jul-12 05:00N 39°35' W 075°35'0 0.2
2018-Jul-12 04:30N 39°35' W 075°35'2 4.5
2018-Jul-12 04:00N 39°34' W 075°33'3 6.4
2018-Jul-12 03:30N 39°30' W 075°33'4 8.1
2018-Jul-12 03:00N 39°26' W 075°32'5 9.6
2018-Jul-12 02:31N 39°23' W 075°28'510.0
2018-Jul-12 02:00N 39°19' W 075°24'510.5
2018-Jul-12 01:30N 39°15' W 075°19'510.4
2018-Jul-12 01:00N 39°11' W 075°16'510.2
2018-Jul-12 00:30N 39°06' W 075°12'4 7.8
2018-Jul-12 00:01N 39°03' W 075°10'510.7
2018-Jul-11 23:30N 38°58' W 075°07'4 7.2
2018-Jul-11 23:01N 38°55' W 075°06'1 1.3
2018-Jul-11 22:30N 38°55' W 075°07'0 0.0
2018-Jul-11 21:59N 38°55' W 075°07'0 0.0
2018-Jul-11 20:21N 38°55' W 075°07'0 0.0
2018-Jul-11 19:49N 38°55' W 075°07'0 0.1
2018-Jul-11 19:13N 38°55' W 075°07'0 0.2
2018-Jul-11 18:53N 38°55' W 075°07'0 0.3
2018-Jul-11 18:30N 38°55' W 075°07'0 0.1
2018-Jul-11 18:01N 38°55' W 075°07'0 0.1
2018-Jul-11 17:28N 38°55' W 075°07'0 0.0
2018-Jul-11 17:01N 38°55' W 075°07'0 0.0
2018-Jul-11 16:31N 38°55' W 075°07'0 0.0
2018-Jul-11 16:01N 38°55' W 075°07'0 0.0
2018-Jul-11 15:30N 38°55' W 075°07'0 0.0
2018-Jul-11 15:00N 38°55' W 075°07'0 0.0
2018-Jul-11 14:30N 38°55' W 075°07'1 1.7
2018-Jul-11 14:00N 38°55' W 075°08'4 9.1
2018-Jul-11 13:30N 38°58' W 075°12'1 2.2
2018-Jul-11 13:01N 38°59' W 075°13'0 0.0
2018-Jul-11 12:30N 38°59' W 075°13'0 0.0
2018-Jul-11 12:01N 38°59' W 075°13'0 0.0
2018-Jul-11 11:30N 38°59' W 075°13'0 0.0
2018-Jul-11 11:00N 38°59' W 075°13'0 0.0
2018-Jul-11 10:30N 38°59' W 075°13'0 0.0
2018-Jul-11 10:00N 38°59' W 075°13'0 0.1
2018-Jul-11 09:30N 38°59' W 075°13'0 0.2
2018-Jul-11 09:00N 38°59' W 075°13'0 0.1
2018-Jul-11 08:30N 38°59' W 075°13'0 0.3
2018-Jul-11 07:59N 38°59' W 075°12'0 0.4
2018-Jul-11 07:30N 38°59' W 075°12'0 0.1
2018-Jul-11 07:00N 38°59' W 075°12'0 0.1
2018-Jul-11 06:30N 38°59' W 075°12'0 0.1
2018-Jul-11 06:00N 38°59' W 075°12'1 1.0
2018-Jul-11 05:30N 38°58' W 075°12'3 6.0
2018-Jul-11 05:00N 38°56' W 075°10'3 6.0
2018-Jul-11 04:30N 38°55' W 075°06'611.5
2018-Jul-11 04:00N 39°01' W 075°09'510.8
2018-Jul-11 03:30N 39°06' W 075°12'510.2
2018-Jul-11 03:00N 39°10' W 075°15'5 9.5
2018-Jul-11 02:30N 39°14' W 075°18'4 8.6
2018-Jul-11 02:00N 39°17' W 075°22'4 7.8
2018-Jul-11 01:30N 39°20' W 075°25'3 6.9
2018-Jul-11 01:00N 39°23' W 075°28'3 6.7
2018-Jul-11 00:30N 39°25' W 075°31'3 6.2
2018-Jul-11 00:00N 39°28' W 075°34'3 6.1
2018-Jul-10 23:31N 39°31' W 075°33'3 6.1
2018-Jul-10 23:01N 39°34' W 075°33'2 4.2
2018-Jul-10 22:31N 39°35' W 075°35'0 0.1
2018-Jul-10 22:00N 39°35' W 075°35'0 0.0
2018-Jul-10 21:31N 39°35' W 075°35'0 0.0
2018-Jul-10 21:01N 39°35' W 075°35'0 0.0
2018-Jul-10 20:28N 39°35' W 075°35'0 0.0
2018-Jul-10 19:58N 39°35' W 075°35'0 0.0
2018-Jul-10 19:28N 39°35' W 075°35'0 0.0
2018-Jul-10 18:52N 39°35' W 075°35'0 0.0
2018-Jul-10 18:28N 39°35' W 075°35'0 0.0
2018-Jul-10 17:58N 39°35' W 075°35'0 0.0
2018-Jul-10 17:28N 39°35' W 075°35'0 0.0
2018-Jul-10 16:58N 39°35' W 075°35'0 0.0
2018-Jul-10 16:28N 39°35' W 075°35'0 0.0
2018-Jul-10 15:58N 39°35' W 075°35'0 0.0
2018-Jul-10 15:28N 39°35' W 075°35'0 0.0
2018-Jul-10 14:58N 39°35' W 075°35'0 0.0
2018-Jul-10 14:28N 39°35' W 075°35'0 0.0
2018-Jul-10 13:58N 39°35' W 075°35'0 0.0
2018-Jul-10 13:28N 39°35' W 075°35'0 0.0
2018-Jul-10 12:58N 39°35' W 075°35'0 0.0
2018-Jul-10 12:28N 39°35' W 075°35'0 0.0
2018-Jul-10 11:58N 39°35' W 075°35'0 0.0
2018-Jul-10 11:28N 39°35' W 075°35'0 0.0
2018-Jul-10 10:58N 39°35' W 075°35'0 0.0
2018-Jul-10 10:28N 39°35' W 075°35'0 0.0
2018-Jul-10 09:58N 39°35' W 075°35'0 0.0
2018-Jul-10 09:28N 39°35' W 075°35'0 0.0
2018-Jul-10 08:58N 39°35' W 075°35'0 0.0
2018-Jul-10 08:28N 39°35' W 075°35'0 0.0
2018-Jul-10 07:58N 39°35' W 075°35'0 0.0
2018-Jul-10 07:28N 39°35' W 075°35'0 0.0
2018-Jul-10 06:58N 39°35' W 075°35'0 0.0
2018-Jul-10 06:28N 39°35' W 075°35'0 0.0
2018-Jul-10 05:58N 39°35' W 075°35'0 0.0
2018-Jul-10 05:28N 39°35' W 075°35'0 0.0
2018-Jul-10 04:58N 39°35' W 075°35'0 0.0
2018-Jul-10 04:28N 39°35' W 075°35'0 0.0
2018-Jul-10 03:58N 39°35' W 075°35'0 0.0
2018-Jul-10 03:30N 39°35' W 075°35'0 0.0
2018-Jul-10 03:00N 39°35' W 075°35'0 0.4
2018-Jul-10 02:30N 39°35' W 075°35'2 4.5
2018-Jul-10 02:00N 39°33' W 075°33'2 4.0
2018-Jul-10 01:30N 39°31' W 075°33'2 4.8
2018-Jul-10 01:00N 39°29' W 075°34'3 5.7
2018-Jul-10 00:30N 39°26' W 075°33'4 7.4
2018-Jul-10 00:00N 39°24' W 075°29'4 8.7
2018-Jul-09 23:30N 39°20' W 075°26'510.0
2018-Jul-09 23:00N 39°17' W 075°21'5 9.6
2018-Jul-09 22:30N 39°13' W 075°17'5 9.1
2018-Jul-09 22:00N 39°09' W 075°15'5 9.0
2018-Jul-09 21:30N 39°05' W 075°11'4 8.0
2018-Jul-09 21:00N 39°02' W 075°09'3 6.3
2018-Jul-09 20:30N 38°59' W 075°08'3 6.0
2018-Jul-09 20:00N 38°56' W 075°06'2 3.4
2018-Jul-09 19:30N 38°54' W 075°07'1 2.0
2018-Jul-09 19:00N 38°55' W 075°08'0 0.1
2018-Jul-09 18:30N 38°55' W 075°08'0 0.0
2018-Jul-09 18:00N 38°55' W 075°08'0 0.1
2018-Jul-09 17:25N 38°55' W 075°08'0 0.3
2018-Jul-09 17:00N 38°55' W 075°08'0 0.1
2018-Jul-09 15:58N 38°55' W 075°08'0 0.0
2018-Jul-09 15:29N 38°55' W 075°07'0 0.6
2018-Jul-09 15:00N 38°55' W 075°07'4 7.1
2018-Jul-09 14:30N 38°57' W 075°11'2 4.1
2018-Jul-09 14:00N 38°59' W 075°12'0 0.0
2018-Jul-09 13:30N 38°59' W 075°12'0 0.0
2018-Jul-09 13:01N 38°59' W 075°12'0 0.1
2018-Jul-09 12:31N 38°59' W 075°12'0 0.3
2018-Jul-09 12:01N 38°59' W 075°13'0 0.3
2018-Jul-09 11:31N 38°59' W 075°13'0 0.1
2018-Jul-09 11:00N 38°59' W 075°13'0 0.1
2018-Jul-09 10:30N 38°59' W 075°13'0 0.0
2018-Jul-09 10:00N 38°59' W 075°13'0 0.0
2018-Jul-09 09:30N 38°59' W 075°13'0 0.0
2018-Jul-09 09:00N 38°59' W 075°13'0 0.0
2018-Jul-09 08:30N 38°59' W 075°13'0 0.1
2018-Jul-09 08:00N 38°59' W 075°13'0 0.0
2018-Jul-09 07:29N 38°59' W 075°13'0 0.0
2018-Jul-09 07:00N 38°59' W 075°13'1 1.2
2018-Jul-09 06:30N 38°60' W 075°13'1 2.5
2018-Jul-09 06:00N 39°01' W 075°14'1 1.0
2018-Jul-09 05:29N 39°01' W 075°14'0 0.1
2018-Jul-09 04:38N 39°01' W 075°14'0 0.1
2018-Jul-09 04:21N 39°01' W 075°14'0 0.0
2018-Jul-09 03:59N 39°01' W 075°14'0 0.0
2018-Jul-09 03:29N 39°01' W 075°14'0 0.0
2018-Jul-09 02:53N 39°01' W 075°14'0 0.0
2018-Jul-09 02:23N 39°01' W 075°14'0 0.0
2018-Jul-09 01:59N 39°01' W 075°14'0 0.2
2018-Jul-09 01:29N 39°01' W 075°14'0 0.5
2018-Jul-09 00:59N 39°01' W 075°14'0 0.1
2018-Jul-09 00:29N 39°01' W 075°14'0 0.0
2018-Jul-08 23:39N 39°01' W 075°14'0 0.0
2018-Jul-08 23:15N 39°01' W 075°14'0 0.0
2018-Jul-08 22:54N 39°01' W 075°14'0 0.0
2018-Jul-08 22:18N 39°01' W 075°14'0 0.0
2018-Jul-08 21:51N 39°01' W 075°14'0 0.0
2018-Jul-08 21:29N 39°01' W 075°14'0 0.0
2018-Jul-08 20:53N 39°01' W 075°14'0 0.0
2018-Jul-08 20:30N 39°01' W 075°14'0 0.0
2018-Jul-08 19:54N 39°01' W 075°14'0 0.0
2018-Jul-08 19:24N 39°01' W 075°14'0 0.1
2018-Jul-08 19:00N 39°01' W 075°14'0 0.0
2018-Jul-08 18:21N 39°01' W 075°14'0 0.1
2018-Jul-08 17:54N 39°01' W 075°14'0 0.1
2018-Jul-08 17:24N 39°01' W 075°14'0 0.1
2018-Jul-08 17:00N 39°01' W 075°14'0 0.1
2018-Jul-08 16:29N 39°01' W 075°14'0 0.1
2018-Jul-08 16:00N 39°01' W 075°14'0 0.1
2018-Jul-08 15:29N 39°01' W 075°14'0 0.0
2018-Jul-08 15:00N 39°01' W 075°14'0 0.0
2018-Jul-08 14:26N 39°01' W 075°14'0 0.0
2018-Jul-08 13:56N 39°01' W 075°14'0 0.0
2018-Jul-08 13:24N 39°01' W 075°14'0 0.1
2018-Jul-08 12:59N 39°01' W 075°14'0 0.0
2018-Jul-08 12:29N 39°01' W 075°14'0 0.0
2018-Jul-08 11:59N 39°01' W 075°14'0 0.1
2018-Jul-08 11:26N 39°01' W 075°14'0 0.0
2018-Jul-08 10:59N 39°01' W 075°14'0 0.2
2018-Jul-08 10:29N 39°01' W 075°14'0 0.1
2018-Jul-08 09:50N 39°01' W 075°14'0 0.0
2018-Jul-08 09:29N 39°01' W 075°14'0 0.1
2018-Jul-08 08:59N 39°01' W 075°14'0 0.0
2018-Jul-08 08:18N 39°01' W 075°14'0 0.1
2018-Jul-08 07:50N 39°01' W 075°14'0 0.0
2018-Jul-08 07:29N 39°01' W 075°14'0 0.1
2018-Jul-08 06:50N 39°01' W 075°14'0 0.0
2018-Jul-08 06:20N 39°01' W 075°14'0 0.1
2018-Jul-08 05:44N 39°01' W 075°14'0 0.1
2018-Jul-08 05:29N 39°01' W 075°14'0 0.0
2018-Jul-08 04:59N 39°01' W 075°14'0 0.1
2018-Jul-08 04:29N 39°01' W 075°14'1 1.1
2018-Jul-08 03:59N 39°01' W 075°14'3 6.0
2018-Jul-08 03:30N 38°58' W 075°12'3 6.4
2018-Jul-08 02:59N 38°56' W 075°09'7 4.9
2018-Jul-08 01:38N 39°02' W 075°10'3 8.9
2018-Jul-08 01:16N 39°05' W 075°11'2 8.6
2018-Jul-08 01:00N 39°07' W 075°13'4 7.4
2018-Jul-08 00:30N 39°10' W 075°16'4 8.2
2018-Jul-08 00:00N 39°14' W 075°18'4 7.8
2018-Jul-07 23:30N 39°17' W 075°21'3 7.0
2018-Jul-07 23:01N 39°19' W 075°24'1 1.0
2018-Jul-07 22:28N 39°20' W 075°25'0 0.1
2018-Jul-07 21:58N 39°20' W 075°25'0 0.0
2018-Jul-07 21:28N 39°20' W 075°25'0 0.0
2018-Jul-07 20:58N 39°20' W 075°25'0 0.0
2018-Jul-07 20:28N 39°20' W 075°25'0 0.0
2018-Jul-07 19:58N 39°20' W 075°25'0 0.0
2018-Jul-07 19:28N 39°20' W 075°25'0 0.1
2018-Jul-07 18:58N 39°20' W 075°25'0 0.0
2018-Jul-07 18:28N 39°20' W 075°25'0 0.1
2018-Jul-07 17:58N 39°20' W 075°25'0 0.3
2018-Jul-07 17:28N 39°19' W 075°25'0 0.1
2018-Jul-07 16:58N 39°19' W 075°25'0 0.1
2018-Jul-07 16:28N 39°19' W 075°25'0 0.1
2018-Jul-07 15:58N 39°19' W 075°25'0 0.0
2018-Jul-07 15:28N 39°19' W 075°25'0 0.0
2018-Jul-07 14:58N 39°19' W 075°25'0 0.1
2018-Jul-07 14:28N 39°19' W 075°25'0 0.0
2018-Jul-07 13:58N 39°19' W 075°25'0 0.0
2018-Jul-07 13:28N 39°19' W 075°25'0 0.1
2018-Jul-07 12:58N 39°19' W 075°25'0 0.0
2018-Jul-07 12:28N 39°19' W 075°25'0 0.0
2018-Jul-07 11:58N 39°19' W 075°25'0 0.0
2018-Jul-07 11:28N 39°19' W 075°25'0 0.3
2018-Jul-07 10:58N 39°19' W 075°25'0 0.2
2018-Jul-07 10:28N 39°19' W 075°25'0 0.1
2018-Jul-07 09:58N 39°20' W 075°25'0 0.0
2018-Jul-07 09:28N 39°20' W 075°25'0 0.1
2018-Jul-07 09:00N 39°20' W 075°25'1 2.9
2018-Jul-07 08:30N 39°21' W 075°26'2 3.7
2018-Jul-07 08:00N 39°22' W 075°28'3 6.9
2018-Jul-07 07:30N 39°25' W 075°31'4 8.9
2018-Jul-07 07:00N 39°28' W 075°34'5 9.6
2018-Jul-07 06:30N 39°33' W 075°32'510.1
2018-Jul-07 06:00N 39°38' W 075°34'  
Track history (hours):
 
Tides and Currents Weather Stations Pressure Air Temp Water Temp Dewpoint Dewpoint Depression Visibility Wind Speed Wind Dir Waves Ship Positions

Osg Horizon

Owner: OSG Ship Management, Tampa, FL. More information available from US FCC via Universal Licensing System and Coast Guard Vessel Documentation Center.

Last reported at 2018-Jul-17 05:30 UTC. Time now 2018-Jul-17 05:33 UTC.
Position N 39°48' W 075°24'.

Length 215 m.

Type: Tanker. MMSI: 338447000.

Date/timePositionNaut miles runAvg speedWind from/ knotsBaromVisibWave heightAir tempDewpointWater temp
2018-Jul-17 05:30N 39°48' W 075°24'0 0.0
2018-Jul-17 05:00N 39°48' W 075°24'0 0.0
2018-Jul-17 04:30N 39°48' W 075°24'0 0.4
2018-Jul-17 04:00N 39°48' W 075°25'0 0.1
2018-Jul-17 03:30N 39°48' W 075°25'0 0.0
2018-Jul-17 03:00N 39°48' W 075°25'0 0.1
2018-Jul-17 02:30N 39°48' W 075°25'0 0.1
2018-Jul-17 02:00N 39°48' W 075°25'0 0.0
2018-Jul-17 01:30N 39°48' W 075°25'0 0.0
2018-Jul-17 01:00N 39°48' W 075°25'0 0.1
2018-Jul-17 00:30N 39°48' W 075°25'0 0.0
2018-Jul-16 23:30N 39°48' W 075°25'0 0.1
2018-Jul-16 23:00N 39°48' W 075°25'0 0.1
2018-Jul-16 22:30N 39°48' W 075°25'0 0.2
2018-Jul-16 22:00N 39°48' W 075°24'0 0.1
2018-Jul-16 21:30N 39°48' W 075°24'0 0.1
2018-Jul-16 21:00N 39°48' W 075°24'0 0.0
2018-Jul-16 20:30N 39°48' W 075°24'0 0.0
2018-Jul-16 20:00N 39°48' W 075°24'0 0.0
2018-Jul-16 19:30N 39°48' W 075°24'0 0.0
2018-Jul-16 19:00N 39°48' W 075°24'2 3.4
2018-Jul-16 18:30N 39°48' W 075°26'3 6.4
2018-Jul-16 18:00N 39°45' W 075°29'3 5.8
2018-Jul-16 17:30N 39°43' W 075°31'3 5.7
2018-Jul-16 17:00N 39°45' W 075°29'5 9.1
2018-Jul-16 16:30N 39°48' W 075°25'510.2
2018-Jul-16 16:00N 39°51' W 075°19'510.0
2018-Jul-16 15:30N 39°52' W 075°13'0 0.1
2018-Jul-16 15:00N 39°52' W 075°13'0 0.0
2018-Jul-16 14:28N 39°52' W 075°13'0 0.0
2018-Jul-16 13:58N 39°52' W 075°13'0 0.0
2018-Jul-16 13:28N 39°52' W 075°13'0 0.0
2018-Jul-16 12:58N 39°52' W 075°13'0 0.0
2018-Jul-16 12:28N 39°52' W 075°13'0 0.0
2018-Jul-16 11:58N 39°52' W 075°13'0 0.0
2018-Jul-16 11:28N 39°52' W 075°13'0 0.0
2018-Jul-16 10:58N 39°52' W 075°13'0 0.0
2018-Jul-16 10:28N 39°52' W 075°13'0 0.0
2018-Jul-16 09:58N 39°52' W 075°13'0 0.0
2018-Jul-16 09:28N 39°52' W 075°13'0 0.0
2018-Jul-16 08:58N 39°52' W 075°13'0 0.0
2018-Jul-16 08:28N 39°52' W 075°13'0 0.0
2018-Jul-16 07:58N 39°52' W 075°13'0 0.0
2018-Jul-16 07:28N 39°52' W 075°13'0 0.0
2018-Jul-16 06:55N 39°52' W 075°13'0 0.0
2018-Jul-16 06:28N 39°52' W 075°13'0 0.0
2018-Jul-16 05:58N 39°52' W 075°13'0 0.0
2018-Jul-16 05:28N 39°52' W 075°13'0 0.0
2018-Jul-16 04:58N 39°52' W 075°13'0 0.0
2018-Jul-16 04:28N 39°52' W 075°13'0 0.0
2018-Jul-16 03:58N 39°52' W 075°13'0 0.0
2018-Jul-16 03:28N 39°52' W 075°13'0 0.0
2018-Jul-16 02:58N 39°52' W 075°13'0 0.0
2018-Jul-16 02:28N 39°52' W 075°13'0 0.0
2018-Jul-16 01:58N 39°52' W 075°13'0 0.0
2018-Jul-16 01:28N 39°52' W 075°13'0 0.0
2018-Jul-16 00:58N 39°52' W 075°13'0 0.0
2018-Jul-16 00:28N 39°52' W 075°13'0 0.0
2018-Jul-15 23:58N 39°52' W 075°13'0 0.0
2018-Jul-15 23:28N 39°52' W 075°13'0 0.0
2018-Jul-15 22:58N 39°52' W 075°13'0 0.0
2018-Jul-15 22:28N 39°52' W 075°13'0 0.0
2018-Jul-15 21:58N 39°52' W 075°13'0 0.0
2018-Jul-15 21:28N 39°52' W 075°13'0 0.0
2018-Jul-15 20:58N 39°52' W 075°13'0 0.0
2018-Jul-15 20:28N 39°52' W 075°13'0 0.0
2018-Jul-15 19:58N 39°52' W 075°13'0 0.0
2018-Jul-15 19:28N 39°52' W 075°13'0 0.0
2018-Jul-15 18:58N 39°52' W 075°13'0 0.0
2018-Jul-15 18:28N 39°52' W 075°13'0 0.0
2018-Jul-15 17:58N 39°52' W 075°13'0 0.2
2018-Jul-15 17:30N 39°52' W 075°13'3 6.4
2018-Jul-15 17:00N 39°51' W 075°17'611.9
2018-Jul-15 16:30N 39°49' W 075°24'611.9
2018-Jul-15 16:00N 39°45' W 075°30'611.6
2018-Jul-15 15:30N 39°39' W 075°33'5 9.9
2018-Jul-15 15:00N 39°35' W 075°33'611.1
2018-Jul-15 14:30N 39°29' W 075°34'510.9
2018-Jul-15 14:00N 39°24' W 075°30'611.1
2018-Jul-15 13:30N 39°20' W 075°25'611.2
2018-Jul-15 13:00N 39°16' W 075°21'510.7
2018-Jul-15 12:30N 39°12' W 075°17'510.9
2018-Jul-15 12:00N 39°07' W 075°13'510.4
2018-Jul-15 11:30N 39°02' W 075°10'510.8
2018-Jul-15 11:00N 38°57' W 075°07'3 6.3
2018-Jul-15 10:30N 38°54' W 075°07'1 2.2
2018-Jul-15 10:01N 38°55' W 075°09'0 0.1
2018-Jul-15 09:29N 38°55' W 075°09'0 0.0
2018-Jul-15 09:00N 38°55' W 075°09'0 0.0
2018-Jul-15 08:18N 38°55' W 075°09'0 0.0
2018-Jul-15 08:00N 38°55' W 075°09'0 0.0
2018-Jul-15 07:30N 38°55' W 075°09'0 0.0
2018-Jul-15 07:00N 38°55' W 075°09'0 0.0
2018-Jul-15 06:18N 38°55' W 075°09'0 0.1
2018-Jul-15 05:39N 38°55' W 075°09'0 0.3
2018-Jul-15 05:27N 38°55' W 075°09'0 0.1
2018-Jul-15 03:00N 38°55' W 075°09'1 1.6
2018-Jul-15 02:30N 38°55' W 075°10'2 0.4
2018-Jul-14 21:17N 38°57' W 075°11'0 0.1
2018-Jul-14 20:59N 38°57' W 075°11'0 0.0
2018-Jul-14 20:29N 38°57' W 075°11'0 0.0
2018-Jul-14 19:56N 38°57' W 075°11'0 0.1
2018-Jul-14 19:29N 38°57' W 075°11'0 0.0
2018-Jul-14 19:00N 38°57' W 075°11'2 3.7
2018-Jul-14 18:30N 38°56' W 075°09'2 4.6
2018-Jul-14 18:00N 38°56' W 075°06'612.4
2018-Jul-14 17:30N 39°02' W 075°10'611.4
2018-Jul-14 17:01N 39°07' W 075°13'510.9
2018-Jul-14 16:30N 39°12' W 075°17'5 9.8
2018-Jul-14 16:00N 39°16' W 075°20'5 9.0
2018-Jul-14 15:30N 39°19' W 075°24'4 8.5
2018-Jul-14 15:00N 39°22' W 075°28'4 8.8
2018-Jul-14 14:30N 39°26' W 075°32'9 8.8
2018-Jul-14 13:30N 39°34' W 075°33'5 9.6
2018-Jul-14 13:00N 39°39' W 075°33'612.2
2018-Jul-14 12:30N 39°45' W 075°30'510.7
2018-Jul-14 12:00N 39°49' W 075°25'0 0.4
2018-Jul-14 11:30N 39°49' W 075°24'0 0.0
2018-Jul-14 10:56N 39°49' W 075°24'0 0.0
2018-Jul-14 09:32N 39°49' W 075°24'0 0.0
2018-Jul-14 09:14N 39°49' W 075°24'0 0.0
2018-Jul-14 08:47N 39°49' W 075°24'0 0.0
2018-Jul-14 08:23N 39°49' W 075°24'0 0.0
2018-Jul-14 07:59N 39°49' W 075°24'0 0.0
2018-Jul-14 06:59N 39°49' W 075°24'0 0.0
2018-Jul-14 06:29N 39°49' W 075°24'0 0.0
2018-Jul-14 05:41N 39°49' W 075°24'0 0.0
2018-Jul-14 05:29N 39°49' W 075°24'0 0.0
2018-Jul-14 04:59N 39°49' W 075°24'0 0.0
2018-Jul-14 04:29N 39°49' W 075°24'0 0.0
2018-Jul-14 03:59N 39°49' W 075°24'0 0.0
2018-Jul-14 03:29N 39°49' W 075°24'0 0.0
2018-Jul-14 02:59N 39°49' W 075°24'0 0.0
2018-Jul-14 02:29N 39°49' W 075°24'0 0.0
2018-Jul-14 01:59N 39°49' W 075°24'0 0.0
2018-Jul-14 01:29N 39°49' W 075°24'0 0.0
2018-Jul-14 00:59N 39°49' W 075°24'0 0.0
2018-Jul-14 00:26N 39°49' W 075°24'0 0.0
2018-Jul-13 23:59N 39°49' W 075°24'0 0.0
2018-Jul-13 23:23N 39°49' W 075°24'0 0.0
2018-Jul-13 22:44N 39°49' W 075°24'0 0.0
2018-Jul-13 22:29N 39°49' W 075°24'0 0.0
2018-Jul-13 21:59N 39°49' W 075°24'0 0.0
2018-Jul-13 21:29N 39°49' W 075°24'0 0.0
2018-Jul-13 20:59N 39°49' W 075°24'0 0.0
2018-Jul-13 20:26N 39°49' W 075°24'0 0.0
2018-Jul-13 19:59N 39°49' W 075°24'0 0.0
2018-Jul-13 19:30N 39°49' W 075°24'0 0.5
2018-Jul-13 19:00N 39°49' W 075°25'4 8.9
2018-Jul-13 18:30N 39°46' W 075°29'511.0
2018-Jul-13 18:00N 39°40' W 075°31'5 9.9
2018-Jul-13 17:30N 39°36' W 075°34'510.6
2018-Jul-13 17:00N 39°31' W 075°33'510.3
2018-Jul-13 16:30N 39°26' W 075°32'611.7
2018-Jul-13 16:00N 39°21' W 075°27'611.9
2018-Jul-13 15:30N 39°17' W 075°21'611.6
2018-Jul-13 15:00N 39°12' W 075°17'611.5
2018-Jul-13 14:31N 39°07' W 075°13'1111.2
2018-Jul-13 13:29N 38°57' W 075°07'3 5.4
2018-Jul-13 13:00N 38°55' W 075°08'0 0.1
2018-Jul-13 12:29N 38°55' W 075°08'0 0.0
2018-Jul-13 11:59N 38°55' W 075°08'0 0.0
2018-Jul-13 11:29N 38°55' W 075°08'0 0.0
2018-Jul-13 10:59N 38°55' W 075°08'0 0.1
2018-Jul-13 10:29N 38°55' W 075°08'0 0.0
2018-Jul-13 09:59N 38°55' W 075°08'0 0.2
2018-Jul-13 09:26N 38°54' W 075°08'0 0.3
2018-Jul-13 08:59N 38°54' W 075°08'0 0.2
2018-Jul-13 08:30N 38°54' W 075°08'0 0.0
2018-Jul-13 08:00N 38°54' W 075°08'3 5.8
2018-Jul-13 07:30N 38°56' W 075°10'0 0.7
2018-Jul-13 07:00N 38°57' W 075°10'0 0.0
2018-Jul-13 06:30N 38°57' W 075°10'0 0.0
2018-Jul-13 06:00N 38°57' W 075°10'0 0.0
2018-Jul-13 05:24N 38°57' W 075°10'0 0.1
2018-Jul-13 04:54N 38°57' W 075°10'0 0.0
2018-Jul-13 04:27N 38°57' W 075°10'0 0.1
2018-Jul-13 03:57N 38°57' W 075°10'0 0.4
2018-Jul-13 03:12N 38°57' W 075°10'0 0.3
2018-Jul-13 03:00N 38°57' W 075°11'0 0.1
2018-Jul-13 02:30N 38°57' W 075°11'0 0.0
2018-Jul-12 23:00N 38°57' W 075°11'0 0.7
2018-Jul-12 22:30N 38°57' W 075°10'7 4.8
2018-Jul-12 21:05N 39°04' W 075°10'1 9.5
2018-Jul-12 20:58N 39°05' W 075°11'510.1
2018-Jul-12 20:31N 39°08' W 075°14'611.1
2018-Jul-12 20:00N 39°13' W 075°18'612.3
2018-Jul-12 19:30N 39°18' W 075°23'612.5
2018-Jul-12 19:01N 39°23' W 075°28'612.1
2018-Jul-12 18:30N 39°27' W 075°33'611.1
2018-Jul-12 18:00N 39°33' W 075°33'3 6.1
2018-Jul-12 17:30N 39°35' W 075°35'0 0.0
2018-Jul-12 17:00N 39°35' W 075°35'0 0.0
2018-Jul-12 16:30N 39°35' W 075°35'0 0.0
2018-Jul-12 16:00N 39°35' W 075°35'0 0.0
2018-Jul-12 15:30N 39°35' W 075°35'0 0.0
2018-Jul-12 14:59N 39°35' W 075°35'0 0.0
2018-Jul-12 14:30N 39°35' W 075°35'0 0.0
2018-Jul-12 14:00N 39°35' W 075°35'0 0.0
2018-Jul-12 13:31N 39°35' W 075°35'0 0.0
2018-Jul-12 13:01N 39°35' W 075°35'0 0.0
2018-Jul-12 12:31N 39°35' W 075°35'0 0.0
2018-Jul-12 12:00N 39°35' W 075°35'0 0.0
2018-Jul-12 11:30N 39°35' W 075°35'0 0.0
2018-Jul-12 11:00N 39°35' W 075°35'0 0.0
2018-Jul-12 10:30N 39°35' W 075°35'0 0.0
2018-Jul-12 10:00N 39°35' W 075°35'0 0.0
2018-Jul-12 09:31N 39°35' W 075°35'0 0.0
2018-Jul-12 09:00N 39°35' W 075°35'0 0.0
2018-Jul-12 08:30N 39°35' W 075°35'0 0.0
2018-Jul-12 08:00N 39°35' W 075°35'0 0.0
2018-Jul-12 07:30N 39°35' W 075°35'0 0.0
2018-Jul-12 07:00N 39°35' W 075°35'0 0.0
2018-Jul-12 06:30N 39°35' W 075°35'0 0.0
2018-Jul-12 06:00N 39°35' W 075°35'0 0.0
2018-Jul-12 05:30N 39°35' W 075°35'0 0.0
2018-Jul-12 05:00N 39°35' W 075°35'0 0.2
2018-Jul-12 04:30N 39°35' W 075°35'2 4.5
2018-Jul-12 04:00N 39°34' W 075°33'3 6.4
2018-Jul-12 03:30N 39°30' W 075°33'4 8.1
2018-Jul-12 03:00N 39°26' W 075°32'5 9.6
2018-Jul-12 02:31N 39°23' W 075°28'510.0
2018-Jul-12 02:00N 39°19' W 075°24'510.5
2018-Jul-12 01:30N 39°15' W 075°19'510.4
2018-Jul-12 01:00N 39°11' W 075°16'510.2
2018-Jul-12 00:30N 39°06' W 075°12'4 7.8
2018-Jul-12 00:01N 39°03' W 075°10'510.7
2018-Jul-11 23:30N 38°58' W 075°07'4 7.2
2018-Jul-11 23:01N 38°55' W 075°06'1 1.3
2018-Jul-11 22:30N 38°55' W 075°07'0 0.0
2018-Jul-11 21:59N 38°55' W 075°07'0 0.0
2018-Jul-11 20:21N 38°55' W 075°07'0 0.0
2018-Jul-11 19:49N 38°55' W 075°07'0 0.1
2018-Jul-11 19:13N 38°55' W 075°07'0 0.2
2018-Jul-11 18:53N 38°55' W 075°07'0 0.3
2018-Jul-11 18:30N 38°55' W 075°07'0 0.1
2018-Jul-11 18:01N 38°55' W 075°07'0 0.1
2018-Jul-11 17:28N 38°55' W 075°07'0 0.0
2018-Jul-11 17:01N 38°55' W 075°07'0 0.0
2018-Jul-11 16:31N 38°55' W 075°07'0 0.0
2018-Jul-11 16:01N 38°55' W 075°07'0 0.0
2018-Jul-11 15:30N 38°55' W 075°07'0 0.0
2018-Jul-11 15:00N 38°55' W 075°07'0 0.0
2018-Jul-11 14:30N 38°55' W 075°07'1 1.7
2018-Jul-11 14:00N 38°55' W 075°08'4 9.1
2018-Jul-11 13:30N 38°58' W 075°12'1 2.2
2018-Jul-11 13:01N 38°59' W 075°13'0 0.0
2018-Jul-11 12:30N 38°59' W 075°13'0 0.0
2018-Jul-11 12:01N 38°59' W 075°13'0 0.0
2018-Jul-11 11:30N 38°59' W 075°13'0 0.0
2018-Jul-11 11:00N 38°59' W 075°13'0 0.0
2018-Jul-11 10:30N 38°59' W 075°13'0 0.0
2018-Jul-11 10:00N 38°59' W 075°13'0 0.1
2018-Jul-11 09:30N 38°59' W 075°13'0 0.2
2018-Jul-11 09:00N 38°59' W 075°13'0 0.1
2018-Jul-11 08:30N 38°59' W 075°13'0 0.3
2018-Jul-11 07:59N 38°59' W 075°12'0 0.4
2018-Jul-11 07:30N 38°59' W 075°12'0 0.1
2018-Jul-11 07:00N 38°59' W 075°12'0 0.1
2018-Jul-11 06:30N 38°59' W 075°12'0 0.1
2018-Jul-11 06:00N 38°59' W 075°12'1 1.0
2018-Jul-11 05:30N 38°58' W 075°12'3 6.0
2018-Jul-11 05:00N 38°56' W 075°10'3 6.0
2018-Jul-11 04:30N 38°55' W 075°06'611.5
2018-Jul-11 04:00N 39°01' W 075°09'510.8
2018-Jul-11 03:30N 39°06' W 075°12'510.2
2018-Jul-11 03:00N 39°10' W 075°15'5 9.5
2018-Jul-11 02:30N 39°14' W 075°18'4 8.6
2018-Jul-11 02:00N 39°17' W 075°22'4 7.8
2018-Jul-11 01:30N 39°20' W 075°25'3 6.9
2018-Jul-11 01:00N 39°23' W 075°28'3 6.7
2018-Jul-11 00:30N 39°25' W 075°31'3 6.2
2018-Jul-11 00:00N 39°28' W 075°34'3 6.1
2018-Jul-10 23:31N 39°31' W 075°33'3 6.1
2018-Jul-10 23:01N 39°34' W 075°33'2 4.2
2018-Jul-10 22:31N 39°35' W 075°35'0 0.1
2018-Jul-10 22:00N 39°35' W 075°35'0 0.0
2018-Jul-10 21:31N 39°35' W 075°35'0 0.0
2018-Jul-10 21:01N 39°35' W 075°35'0 0.0
2018-Jul-10 20:28N 39°35' W 075°35'0 0.0
2018-Jul-10 19:58N 39°35' W 075°35'0 0.0
2018-Jul-10 19:28N 39°35' W 075°35'0 0.0
2018-Jul-10 18:52N 39°35' W 075°35'0 0.0
2018-Jul-10 18:28N 39°35' W 075°35'0 0.0
2018-Jul-10 17:58N 39°35' W 075°35'0 0.0
2018-Jul-10 17:28N 39°35' W 075°35'0 0.0
2018-Jul-10 16:58N 39°35' W 075°35'0 0.0
2018-Jul-10 16:28N 39°35' W 075°35'0 0.0
2018-Jul-10 15:58N 39°35' W 075°35'0 0.0
2018-Jul-10 15:28N 39°35' W 075°35'0 0.0
2018-Jul-10 14:58N 39°35' W 075°35'0 0.0
2018-Jul-10 14:28N 39°35' W 075°35'0 0.0
2018-Jul-10 13:58N 39°35' W 075°35'0 0.0
2018-Jul-10 13:28N 39°35' W 075°35'0 0.0
2018-Jul-10 12:58N 39°35' W 075°35'0 0.0
2018-Jul-10 12:28N 39°35' W 075°35'0 0.0
2018-Jul-10 11:58N 39°35' W 075°35'0 0.0
2018-Jul-10 11:28N 39°35' W 075°35'0 0.0
2018-Jul-10 10:58N 39°35' W 075°35'0 0.0
2018-Jul-10 10:28N 39°35' W 075°35'0 0.0
2018-Jul-10 09:58N 39°35' W 075°35'0 0.0
2018-Jul-10 09:28N 39°35' W 075°35'0 0.0
2018-Jul-10 08:58N 39°35' W 075°35'0 0.0
2018-Jul-10 08:28N 39°35' W 075°35'0 0.0
2018-Jul-10 07:58N 39°35' W 075°35'0 0.0
2018-Jul-10 07:28N 39°35' W 075°35'0 0.0
2018-Jul-10 06:58N 39°35' W 075°35'0 0.0
2018-Jul-10 06:28N 39°35' W 075°35'0 0.0
2018-Jul-10 05:58N 39°35' W 075°35'0 0.0
2018-Jul-10 05:28N 39°35' W 075°35'0 0.0
2018-Jul-10 04:58N 39°35' W 075°35'0 0.0
2018-Jul-10 04:28N 39°35' W 075°35'0 0.0
2018-Jul-10 03:58N 39°35' W 075°35'0 0.0
2018-Jul-10 03:30N 39°35' W 075°35'0 0.0
2018-Jul-10 03:00N 39°35' W 075°35'0 0.4
2018-Jul-10 02:30N 39°35' W 075°35'2 4.5
2018-Jul-10 02:00N 39°33' W 075°33'2 4.0
2018-Jul-10 01:30N 39°31' W 075°33'2 4.8
2018-Jul-10 01:00N 39°29' W 075°34'3 5.7
2018-Jul-10 00:30N 39°26' W 075°33'4 7.4
2018-Jul-10 00:00N 39°24' W 075°29'4 8.7
2018-Jul-09 23:30N 39°20' W 075°26'510.0
2018-Jul-09 23:00N 39°17' W 075°21'5 9.6
2018-Jul-09 22:30N 39°13' W 075°17'5 9.1
2018-Jul-09 22:00N 39°09' W 075°15'5 9.0
2018-Jul-09 21:30N 39°05' W 075°11'4 8.0
2018-Jul-09 21:00N 39°02' W 075°09'3 6.3
2018-Jul-09 20:30N 38°59' W 075°08'3 6.0
2018-Jul-09 20:00N 38°56' W 075°06'2 3.4
2018-Jul-09 19:30N 38°54' W 075°07'1 2.0
2018-Jul-09 19:00N 38°55' W 075°08'0 0.1
2018-Jul-09 18:30N 38°55' W 075°08'0 0.0
2018-Jul-09 18:00N 38°55' W 075°08'0 0.1
2018-Jul-09 17:25N 38°55' W 075°08'0 0.3
2018-Jul-09 17:00N 38°55' W 075°08'0 0.1
2018-Jul-09 15:58N 38°55' W 075°08'0 0.0
2018-Jul-09 15:29N 38°55' W 075°07'0 0.6
2018-Jul-09 15:00N 38°55' W 075°07'4 7.1
2018-Jul-09 14:30N 38°57' W 075°11'2 4.1
2018-Jul-09 14:00N 38°59' W 075°12'0 0.0
2018-Jul-09 13:30N 38°59' W 075°12'0 0.0
2018-Jul-09 13:01N 38°59' W 075°12'0 0.1
2018-Jul-09 12:31N 38°59' W 075°12'0 0.3
2018-Jul-09 12:01N 38°59' W 075°13'0 0.3
2018-Jul-09 11:31N 38°59' W 075°13'0 0.1
2018-Jul-09 11:00N 38°59' W 075°13'0 0.1
2018-Jul-09 10:30N 38°59' W 075°13'0 0.0
2018-Jul-09 10:00N 38°59' W 075°13'0 0.0
2018-Jul-09 09:30N 38°59' W 075°13'0 0.0
2018-Jul-09 09:00N 38°59' W 075°13'0 0.0
2018-Jul-09 08:30N 38°59' W 075°13'0 0.1
2018-Jul-09 08:00N 38°59' W 075°13'0 0.0
2018-Jul-09 07:29N 38°59' W 075°13'0 0.0
2018-Jul-09 07:00N 38°59' W 075°13'1 1.2
2018-Jul-09 06:30N 38°60' W 075°13'1 2.5
2018-Jul-09 06:00N 39°01' W 075°14'1 1.0
2018-Jul-09 05:29N 39°01' W 075°14'0 0.1
2018-Jul-09 04:38N 39°01' W 075°14'0 0.1
2018-Jul-09 04:21N 39°01' W 075°14'0 0.0
2018-Jul-09 03:59N 39°01' W 075°14'0 0.0
2018-Jul-09 03:29N 39°01' W 075°14'0 0.0
2018-Jul-09 02:53N 39°01' W 075°14'0 0.0
2018-Jul-09 02:23N 39°01' W 075°14'0 0.0
2018-Jul-09 01:59N 39°01' W 075°14'0 0.2
2018-Jul-09 01:29N 39°01' W 075°14'0 0.5
2018-Jul-09 00:59N 39°01' W 075°14'0 0.1
2018-Jul-09 00:29N 39°01' W 075°14'0 0.0
2018-Jul-08 23:39N 39°01' W 075°14'0 0.0
2018-Jul-08 23:15N 39°01' W 075°14'0 0.0
2018-Jul-08 22:54N 39°01' W 075°14'0 0.0
2018-Jul-08 22:18N 39°01' W 075°14'0 0.0
2018-Jul-08 21:51N 39°01' W 075°14'0 0.0
2018-Jul-08 21:29N 39°01' W 075°14'0 0.0
2018-Jul-08 20:53N 39°01' W 075°14'0 0.0
2018-Jul-08 20:30N 39°01' W 075°14'0 0.0
2018-Jul-08 19:54N 39°01' W 075°14'0 0.0
2018-Jul-08 19:24N 39°01' W 075°14'0 0.1
2018-Jul-08 19:00N 39°01' W 075°14'0 0.0
2018-Jul-08 18:21N 39°01' W 075°14'0 0.1
2018-Jul-08 17:54N 39°01' W 075°14'0 0.1
2018-Jul-08 17:24N 39°01' W 075°14'0 0.1
2018-Jul-08 17:00N 39°01' W 075°14'0 0.1
2018-Jul-08 16:29N 39°01' W 075°14'0 0.1
2018-Jul-08 16:00N 39°01' W 075°14'0 0.1
2018-Jul-08 15:29N 39°01' W 075°14'0 0.0
2018-Jul-08 15:00N 39°01' W 075°14'0 0.0
2018-Jul-08 14:26N 39°01' W 075°14'0 0.0
2018-Jul-08 13:56N 39°01' W 075°14'0 0.0
2018-Jul-08 13:24N 39°01' W 075°14'0 0.1
2018-Jul-08 12:59N 39°01' W 075°14'0 0.0
2018-Jul-08 12:29N 39°01' W 075°14'0 0.0
2018-Jul-08 11:59N 39°01' W 075°14'0 0.1
2018-Jul-08 11:26N 39°01' W 075°14'0 0.0
2018-Jul-08 10:59N 39°01' W 075°14'0 0.2
2018-Jul-08 10:29N 39°01' W 075°14'0 0.1
2018-Jul-08 09:50N 39°01' W 075°14'0 0.0
2018-Jul-08 09:29N 39°01' W 075°14'0 0.1
2018-Jul-08 08:59N 39°01' W 075°14'0 0.0
2018-Jul-08 08:18N 39°01' W 075°14'0 0.1
2018-Jul-08 07:50N 39°01' W 075°14'0 0.0
2018-Jul-08 07:29N 39°01' W 075°14'0 0.1
2018-Jul-08 06:50N 39°01' W 075°14'0 0.0
2018-Jul-08 06:20N 39°01' W 075°14'0 0.1
2018-Jul-08 05:44N 39°01' W 075°14'0 0.1
2018-Jul-08 05:29N 39°01' W 075°14'0 0.0
2018-Jul-08 04:59N 39°01' W 075°14'0 0.1
2018-Jul-08 04:29N 39°01' W 075°14'1 1.1
2018-Jul-08 03:59N 39°01' W 075°14'3 6.0
2018-Jul-08 03:30N 38°58' W 075°12'3 6.4
2018-Jul-08 02:59N 38°56' W 075°09'7 4.9
2018-Jul-08 01:38N 39°02' W 075°10'3 8.9
2018-Jul-08 01:16N 39°05' W 075°11'2 8.6
2018-Jul-08 01:00N 39°07' W 075°13'4 7.4
2018-Jul-08 00:30N 39°10' W 075°16'4 8.2
2018-Jul-08 00:00N 39°14' W 075°18'4 7.8
2018-Jul-07 23:30N 39°17' W 075°21'3 7.0
2018-Jul-07 23:01N 39°19' W 075°24'1 1.0
2018-Jul-07 22:28N 39°20' W 075°25'0 0.1
2018-Jul-07 21:58N 39°20' W 075°25'0 0.0
2018-Jul-07 21:28N 39°20' W 075°25'0 0.0
2018-Jul-07 20:58N 39°20' W 075°25'0 0.0
2018-Jul-07 20:28N 39°20' W 075°25'0 0.0
2018-Jul-07 19:58N 39°20' W 075°25'0 0.0
2018-Jul-07 19:28N 39°20' W 075°25'0 0.1
2018-Jul-07 18:58N 39°20' W 075°25'0 0.0
2018-Jul-07 18:28N 39°20' W 075°25'0 0.1
2018-Jul-07 17:58N 39°20' W 075°25'0 0.3
2018-Jul-07 17:28N 39°19' W 075°25'0 0.1
2018-Jul-07 16:58N 39°19' W 075°25'0 0.1
2018-Jul-07 16:28N 39°19' W 075°25'0 0.1
2018-Jul-07 15:58N 39°19' W 075°25'0 0.0
2018-Jul-07 15:28N 39°19' W 075°25'0 0.0
2018-Jul-07 14:58N 39°19' W 075°25'0 0.1
2018-Jul-07 14:28N 39°19' W 075°25'0 0.0
2018-Jul-07 13:58N 39°19' W 075°25'0 0.0
2018-Jul-07 13:28N 39°19' W 075°25'0 0.1
2018-Jul-07 12:58N 39°19' W 075°25'0 0.0
2018-Jul-07 12:28N 39°19' W 075°25'0 0.0
2018-Jul-07 11:58N 39°19' W 075°25'0 0.0
2018-Jul-07 11:28N 39°19' W 075°25'0 0.3
2018-Jul-07 10:58N 39°19' W 075°25'0 0.2
2018-Jul-07 10:28N 39°19' W 075°25'0 0.1
2018-Jul-07 09:58N 39°20' W 075°25'0 0.0
2018-Jul-07 09:28N 39°20' W 075°25'0 0.1
2018-Jul-07 09:00N 39°20' W 075°25'1 2.9
2018-Jul-07 08:30N 39°21' W 075°26'2 3.7
2018-Jul-07 08:00N 39°22' W 075°28'3 6.9
2018-Jul-07 07:30N 39°25' W 075°31'4 8.9
2018-Jul-07 07:00N 39°28' W 075°34'5 9.6
2018-Jul-07 06:30N 39°33' W 075°32'510.1
2018-Jul-07 06:00N 39°38' W 075°34'  

Dump ship's entire track history